sensor_id;sensor_type;location;lat;lon;timestamp;P1;durP1;ratioP1;P2;durP2;ratioP2
8881;SDS011;4477;48.736;9.176;2022-10-18T00:02:02;17.73;;;14.03;;
8881;SDS011;4477;48.736;9.176;2022-10-18T00:04:29;17.63;;;13.97;;
8881;SDS011;4477;48.736;9.176;2022-10-18T00:06:56;24.20;;;14.37;;
8881;SDS011;4477;48.736;9.176;2022-10-18T00:09:23;19.53;;;13.97;;
8881;SDS011;4477;48.736;9.176;2022-10-18T00:11:52;20.53;;;14.67;;
8881;SDS011;4477;48.736;9.176;2022-10-18T00:14:20;18.90;;;14.20;;
8881;SDS011;4477;48.736;9.176;2022-10-18T00:16:47;20.93;;;14.20;;
8881;SDS011;4477;48.736;9.176;2022-10-18T00:19:13;18.00;;;13.80;;
8881;SDS011;4477;48.736;9.176;2022-10-18T00:21:40;21.73;;;15.63;;
8881;SDS011;4477;48.736;9.176;2022-10-18T00:24:07;21.53;;;15.27;;
8881;SDS011;4477;48.736;9.176;2022-10-18T00:26:34;19.70;;;13.73;;
8881;SDS011;4477;48.736;9.176;2022-10-18T00:29:03;19.77;;;13.17;;
8881;SDS011;4477;48.736;9.176;2022-10-18T00:31:31;26.97;;;13.93;;
8881;SDS011;4477;48.736;9.176;2022-10-18T00:33:59;21.77;;;15.97;;
8881;SDS011;4477;48.736;9.176;2022-10-18T00:36:29;21.63;;;15.20;;
8881;SDS011;4477;48.736;9.176;2022-10-18T00:38:58;19.80;;;15.53;;
8881;SDS011;4477;48.736;9.176;2022-10-18T00:41:31;16.77;;;12.70;;
8881;SDS011;4477;48.736;9.176;2022-10-18T00:43:59;20.97;;;15.90;;
8881;SDS011;4477;48.736;9.176;2022-10-18T00:46:29;19.90;;;14.53;;
8881;SDS011;4477;48.736;9.176;2022-10-18T00:48:58;22.90;;;15.97;;
8881;SDS011;4477;48.736;9.176;2022-10-18T00:51:27;16.03;;;13.00;;
8881;SDS011;4477;48.736;9.176;2022-10-18T00:53:58;18.17;;;12.17;;
8881;SDS011;4477;48.736;9.176;2022-10-18T00:56:25;12.10;;;10.70;;
8881;SDS011;4477;48.736;9.176;2022-10-18T00:58:52;17.43;;;11.00;;
8881;SDS011;4477;48.736;9.176;2022-10-18T01:01:19;17.23;;;11.47;;
8881;SDS011;4477;48.736;9.176;2022-10-18T01:03:47;16.60;;;11.53;;
8881;SDS011;4477;48.736;9.176;2022-10-18T01:06:16;14.47;;;10.13;;
8881;SDS011;4477;48.736;9.176;2022-10-18T01:08:44;19.67;;;11.50;;
8881;SDS011;4477;48.736;9.176;2022-10-18T01:11:32;15.90;;;10.90;;
8881;SDS011;4477;48.736;9.176;2022-10-18T01:14:14;13.80;;;9.97;;
8881;SDS011;4477;48.736;9.176;2022-10-18T01:16:51;15.07;;;10.30;;
8881;SDS011;4477;48.736;9.176;2022-10-18T01:19:37;13.57;;;9.40;;
8881;SDS011;4477;48.736;9.176;2022-10-18T01:22:19;13.20;;;9.70;;
8881;SDS011;4477;48.736;9.176;2022-10-18T01:25:01;10.70;;;7.70;;
8881;SDS011;4477;48.736;9.176;2022-10-18T01:27:42;12.83;;;8.93;;
8881;SDS011;4477;48.736;9.176;2022-10-18T01:30:26;13.43;;;8.20;;
8881;SDS011;4477;48.736;9.176;2022-10-18T01:33:04;9.60;;;8.27;;
8881;SDS011;4477;48.736;9.176;2022-10-18T01:35:39;13.17;;;7.70;;
8881;SDS011;4477;48.736;9.176;2022-10-18T01:38:10;15.53;;;8.23;;
8881;SDS011;4477;48.736;9.176;2022-10-18T01:40:41;11.63;;;7.57;;
8881;SDS011;4477;48.736;9.176;2022-10-18T01:43:10;11.33;;;7.53;;
8881;SDS011;4477;48.736;9.176;2022-10-18T01:45:40;9.87;;;7.20;;
8881;SDS011;4477;48.736;9.176;2022-10-18T01:48:07;11.47;;;8.07;;
8881;SDS011;4477;48.736;9.176;2022-10-18T01:50:35;14.53;;;7.87;;
8881;SDS011;4477;48.736;9.176;2022-10-18T01:53:02;8.53;;;7.63;;
8881;SDS011;4477;48.736;9.176;2022-10-18T01:55:30;12.40;;;8.13;;
8881;SDS011;4477;48.736;9.176;2022-10-18T01:58:03;9.73;;;6.93;;
8881;SDS011;4477;48.736;9.176;2022-10-18T02:00:37;8.93;;;6.60;;
8881;SDS011;4477;48.736;9.176;2022-10-18T02:03:10;9.67;;;5.93;;
8881;SDS011;4477;48.736;9.176;2022-10-18T02:05:43;9.87;;;6.73;;
8881;SDS011;4477;48.736;9.176;2022-10-18T02:08:16;12.17;;;6.80;;
8881;SDS011;4477;48.736;9.176;2022-10-18T02:10:50;11.20;;;7.20;;
8881;SDS011;4477;48.736;9.176;2022-10-18T02:13:20;8.77;;;6.67;;
8881;SDS011;4477;48.736;9.176;2022-10-18T02:15:53;10.87;;;6.63;;
8881;SDS011;4477;48.736;9.176;2022-10-18T02:18:24;8.33;;;6.27;;
8881;SDS011;4477;48.736;9.176;2022-10-18T02:20:54;10.47;;;6.83;;
8881;SDS011;4477;48.736;9.176;2022-10-18T02:23:22;10.27;;;7.53;;
8881;SDS011;4477;48.736;9.176;2022-10-18T02:25:51;8.00;;;6.30;;
8881;SDS011;4477;48.736;9.176;2022-10-18T02:28:18;10.53;;;7.37;;
8881;SDS011;4477;48.736;9.176;2022-10-18T02:30:48;10.67;;;7.40;;
8881;SDS011;4477;48.736;9.176;2022-10-18T02:33:25;8.00;;;6.90;;
8881;SDS011;4477;48.736;9.176;2022-10-18T02:35:58;10.23;;;6.80;;
8881;SDS011;4477;48.736;9.176;2022-10-18T02:38:29;9.77;;;7.00;;
8881;SDS011;4477;48.736;9.176;2022-10-18T02:40:57;9.97;;;6.97;;
8881;SDS011;4477;48.736;9.176;2022-10-18T02:43:24;10.13;;;6.77;;
8881;SDS011;4477;48.736;9.176;2022-10-18T03:04:55;9.07;;;6.83;;
8881;SDS011;4477;48.736;9.176;2022-10-18T03:07:22;12.03;;;6.80;;
8881;SDS011;4477;48.736;9.176;2022-10-18T03:30:33;9.73;;;5.93;;
8881;SDS011;4477;48.736;9.176;2022-10-18T03:33:00;11.33;;;5.90;;
8881;SDS011;4477;48.736;9.176;2022-10-18T03:35:27;7.43;;;6.30;;
8881;SDS011;4477;48.736;9.176;2022-10-18T03:37:54;8.13;;;5.93;;
8881;SDS011;4477;48.736;9.176;2022-10-18T03:42:56;9.03;;;6.03;;
8881;SDS011;4477;48.736;9.176;2022-10-18T03:45:23;6.70;;;5.43;;
8881;SDS011;4477;48.736;9.176;2022-10-18T03:47:51;7.20;;;5.80;;
8881;SDS011;4477;48.736;9.176;2022-10-18T03:50:18;8.33;;;5.40;;
8881;SDS011;4477;48.736;9.176;2022-10-18T04:03:07;7.07;;;5.10;;
8881;SDS011;4477;48.736;9.176;2022-10-18T04:08:09;7.07;;;5.63;;
8881;SDS011;4477;48.736;9.176;2022-10-18T04:10:37;10.17;;;6.23;;
8881;SDS011;4477;48.736;9.176;2022-10-18T04:23:28;8.57;;;7.07;;
8881;SDS011;4477;48.736;9.176;2022-10-18T04:28:30;11.20;;;8.00;;
8881;SDS011;4477;48.736;9.176;2022-10-18T04:30:58;8.20;;;6.77;;
8881;SDS011;4477;48.736;9.176;2022-10-18T06:16:56;9.07;;;4.63;;
8881;SDS011;4477;48.736;9.176;2022-10-18T06:19:23;6.47;;;4.33;;
8881;SDS011;4477;48.736;9.176;2022-10-18T06:21:51;6.93;;;4.33;;
8881;SDS011;4477;48.736;9.176;2022-10-18T06:24:18;5.50;;;3.67;;
8881;SDS011;4477;48.736;9.176;2022-10-18T06:26:45;5.40;;;3.83;;
8881;SDS011;4477;48.736;9.176;2022-10-18T06:29:13;6.10;;;4.60;;
8881;SDS011;4477;48.736;9.176;2022-10-18T06:31:40;4.90;;;4.07;;
8881;SDS011;4477;48.736;9.176;2022-10-18T06:34:08;6.03;;;3.63;;
8881;SDS011;4477;48.736;9.176;2022-10-18T06:36:35;6.30;;;4.00;;
8881;SDS011;4477;48.736;9.176;2022-10-18T06:39:01;6.57;;;4.00;;
8881;SDS011;4477;48.736;9.176;2022-10-18T06:41:28;7.57;;;3.70;;
8881;SDS011;4477;48.736;9.176;2022-10-18T06:43:55;5.70;;;3.70;;
8881;SDS011;4477;48.736;9.176;2022-10-18T06:46:25;5.73;;;3.23;;
8881;SDS011;4477;48.736;9.176;2022-10-18T06:48:52;7.47;;;3.90;;
8881;SDS011;4477;48.736;9.176;2022-10-18T06:51:20;8.20;;;3.80;;
8881;SDS011;4477;48.736;9.176;2022-10-18T06:53:47;6.80;;;3.97;;
8881;SDS011;4477;48.736;9.176;2022-10-18T06:56:14;4.37;;;3.40;;
8881;SDS011;4477;48.736;9.176;2022-10-18T06:58:41;5.20;;;3.10;;
8881;SDS011;4477;48.736;9.176;2022-10-18T07:01:08;5.17;;;3.67;;
8881;SDS011;4477;48.736;9.176;2022-10-18T07:03:37;7.60;;;3.80;;
8881;SDS011;4477;48.736;9.176;2022-10-18T07:06:05;7.23;;;3.73;;
8881;SDS011;4477;48.736;9.176;2022-10-18T07:08:35;7.53;;;3.30;;
8881;SDS011;4477;48.736;9.176;2022-10-18T07:11:02;4.97;;;3.77;;
8881;SDS011;4477;48.736;9.176;2022-10-18T07:13:30;6.00;;;3.53;;
8881;SDS011;4477;48.736;9.176;2022-10-18T07:16:01;5.40;;;3.60;;
8881;SDS011;4477;48.736;9.176;2022-10-18T07:18:29;7.03;;;3.50;;
8881;SDS011;4477;48.736;9.176;2022-10-18T07:20:59;8.57;;;3.50;;
8881;SDS011;4477;48.736;9.176;2022-10-18T07:23:26;6.47;;;3.80;;
8881;SDS011;4477;48.736;9.176;2022-10-18T07:25:55;5.90;;;3.87;;
8881;SDS011;4477;48.736;9.176;2022-10-18T07:28:21;10.33;;;3.97;;
8881;SDS011;4477;48.736;9.176;2022-10-18T07:30:48;6.10;;;3.60;;
8881;SDS011;4477;48.736;9.176;2022-10-18T07:33:15;6.47;;;3.43;;
8881;SDS011;4477;48.736;9.176;2022-10-18T07:35:42;6.80;;;3.80;;
8881;SDS011;4477;48.736;9.176;2022-10-18T07:38:09;6.60;;;3.20;;
8881;SDS011;4477;48.736;9.176;2022-10-18T07:40:36;5.90;;;3.50;;
8881;SDS011;4477;48.736;9.176;2022-10-18T07:43:04;3.77;;;3.37;;
8881;SDS011;4477;48.736;9.176;2022-10-18T07:45:31;5.37;;;3.47;;
8881;SDS011;4477;48.736;9.176;2022-10-18T07:47:58;7.37;;;3.37;;
8881;SDS011;4477;48.736;9.176;2022-10-18T07:50:25;5.23;;;4.00;;
8881;SDS011;4477;48.736;9.176;2022-10-18T07:52:51;6.40;;;3.53;;
8881;SDS011;4477;48.736;9.176;2022-10-18T07:55:18;5.00;;;3.50;;
8881;SDS011;4477;48.736;9.176;2022-10-18T07:57:45;5.07;;;3.40;;
8881;SDS011;4477;48.736;9.176;2022-10-18T08:00:13;9.07;;;3.63;;
8881;SDS011;4477;48.736;9.176;2022-10-18T08:02:40;4.03;;;3.13;;
8881;SDS011;4477;48.736;9.176;2022-10-18T08:05:08;6.83;;;3.60;;
8881;SDS011;4477;48.736;9.176;2022-10-18T08:07:34;6.17;;;3.33;;
8881;SDS011;4477;48.736;9.176;2022-10-18T08:10:01;4.90;;;3.30;;
8881;SDS011;4477;48.736;9.176;2022-10-18T08:12:28;6.43;;;3.67;;
8881;SDS011;4477;48.736;9.176;2022-10-18T08:14:55;4.67;;;3.37;;
8881;SDS011;4477;48.736;9.176;2022-10-18T08:17:23;8.17;;;3.50;;
8881;SDS011;4477;48.736;9.176;2022-10-18T08:19:50;6.90;;;3.37;;
8881;SDS011;4477;48.736;9.176;2022-10-18T08:22:17;3.93;;;3.30;;
8881;SDS011;4477;48.736;9.176;2022-10-18T08:24:46;6.43;;;3.63;;
8881;SDS011;4477;48.736;9.176;2022-10-18T08:27:13;5.37;;;3.73;;
8881;SDS011;4477;48.736;9.176;2022-10-18T08:29:40;6.87;;;3.77;;
8881;SDS011;4477;48.736;9.176;2022-10-18T08:32:07;6.47;;;3.40;;
8881;SDS011;4477;48.736;9.176;2022-10-18T08:34:35;5.77;;;3.33;;
8881;SDS011;4477;48.736;9.176;2022-10-18T08:37:02;4.90;;;3.13;;
8881;SDS011;4477;48.736;9.176;2022-10-18T08:39:29;5.33;;;3.20;;
8881;SDS011;4477;48.736;9.176;2022-10-18T08:42:00;6.67;;;3.40;;
8881;SDS011;4477;48.736;9.176;2022-10-18T08:44:53;5.77;;;2.97;;
8881;SDS011;4477;48.736;9.176;2022-10-18T08:47:20;4.73;;;3.57;;
8881;SDS011;4477;48.736;9.176;2022-10-18T08:49:52;10.23;;;3.37;;
8881;SDS011;4477;48.736;9.176;2022-10-18T08:52:24;5.13;;;2.90;;
8881;SDS011;4477;48.736;9.176;2022-10-18T08:54:58;6.20;;;3.30;;
8881;SDS011;4477;48.736;9.176;2022-10-18T08:57:27;5.87;;;3.03;;
8881;SDS011;4477;48.736;9.176;2022-10-18T08:59:55;6.10;;;3.50;;
8881;SDS011;4477;48.736;9.176;2022-10-18T09:02:27;6.23;;;3.07;;
8881;SDS011;4477;48.736;9.176;2022-10-18T09:05:07;8.37;;;3.60;;
8881;SDS011;4477;48.736;9.176;2022-10-18T09:07:49;6.60;;;3.53;;
8881;SDS011;4477;48.736;9.176;2022-10-18T09:10:29;6.27;;;3.53;;
8881;SDS011;4477;48.736;9.176;2022-10-18T09:13:10;3.60;;;3.10;;
8881;SDS011;4477;48.736;9.176;2022-10-18T09:15:48;4.57;;;2.90;;
8881;SDS011;4477;48.736;9.176;2022-10-18T09:18:27;5.07;;;3.60;;
8881;SDS011;4477;48.736;9.176;2022-10-18T09:21:07;5.63;;;3.17;;
8881;SDS011;4477;48.736;9.176;2022-10-18T09:23:45;3.43;;;2.83;;
8881;SDS011;4477;48.736;9.176;2022-10-18T09:26:14;7.85;;;3.28;;
8881;SDS011;4477;48.736;9.176;2022-10-18T09:28:46;6.43;;;3.50;;
8881;SDS011;4477;48.736;9.176;2022-10-18T09:31:21;7.18;;;3.33;;
8881;SDS011;4477;48.736;9.176;2022-10-18T09:33:57;5.83;;;3.00;;
8881;SDS011;4477;48.736;9.176;2022-10-18T09:36:30;7.67;;;2.80;;
8881;SDS011;4477;48.736;9.176;2022-10-18T09:39:01;6.22;;;3.03;;
8881;SDS011;4477;48.736;9.176;2022-10-18T09:41:32;5.40;;;2.58;;
8881;SDS011;4477;48.736;9.176;2022-10-18T09:44:04;4.43;;;2.75;;
8881;SDS011;4477;48.736;9.176;2022-10-18T09:46:39;6.47;;;3.15;;
8881;SDS011;4477;48.736;9.176;2022-10-18T09:49:12;4.97;;;2.95;;
8881;SDS011;4477;48.736;9.176;2022-10-18T09:51:43;3.53;;;2.60;;
8881;SDS011;4477;48.736;9.176;2022-10-18T09:54:17;4.25;;;2.67;;
8881;SDS011;4477;48.736;9.176;2022-10-18T09:56:50;6.57;;;2.83;;
8881;SDS011;4477;48.736;9.176;2022-10-18T09:59:26;4.38;;;3.10;;
8881;SDS011;4477;48.736;9.176;2022-10-18T10:01:57;5.90;;;2.95;;
8881;SDS011;4477;48.736;9.176;2022-10-18T10:04:24;3.67;;;2.88;;
8881;SDS011;4477;48.736;9.176;2022-10-18T10:06:53;5.28;;;2.80;;
8881;SDS011;4477;48.736;9.176;2022-10-18T10:09:23;7.72;;;2.95;;
8881;SDS011;4477;48.736;9.176;2022-10-18T10:11:53;8.43;;;3.10;;
8881;SDS011;4477;48.736;9.176;2022-10-18T10:14:21;5.22;;;2.60;;
8881;SDS011;4477;48.736;9.176;2022-10-18T10:16:51;5.43;;;2.80;;
8881;SDS011;4477;48.736;9.176;2022-10-18T10:19:25;8.38;;;3.08;;
8881;SDS011;4477;48.736;9.176;2022-10-18T10:21:59;6.57;;;3.10;;
8881;SDS011;4477;48.736;9.176;2022-10-18T10:24:33;7.18;;;3.10;;
8881;SDS011;4477;48.736;9.176;2022-10-18T10:27:12;5.93;;;3.30;;
8881;SDS011;4477;48.736;9.176;2022-10-18T10:29:49;7.05;;;3.05;;
8881;SDS011;4477;48.736;9.176;2022-10-18T10:32:25;7.03;;;3.08;;
8881;SDS011;4477;48.736;9.176;2022-10-18T10:34:54;6.38;;;3.20;;
8881;SDS011;4477;48.736;9.176;2022-10-18T10:37:24;6.70;;;3.22;;
8881;SDS011;4477;48.736;9.176;2022-10-18T10:40:13;7.22;;;2.95;;
8881;SDS011;4477;48.736;9.176;2022-10-18T10:42:55;5.60;;;3.05;;
8881;SDS011;4477;48.736;9.176;2022-10-18T10:45:32;6.47;;;3.30;;
8881;SDS011;4477;48.736;9.176;2022-10-18T10:48:06;5.20;;;3.00;;
8881;SDS011;4477;48.736;9.176;2022-10-18T10:50:49;10.90;;;3.15;;
8881;SDS011;4477;48.736;9.176;2022-10-18T10:56:19;5.28;;;2.95;;
8881;SDS011;4477;48.736;9.176;2022-10-18T10:58:48;5.32;;;3.03;;
8881;SDS011;4477;48.736;9.176;2022-10-18T11:01:17;5.82;;;2.53;;
8881;SDS011;4477;48.736;9.176;2022-10-18T11:03:46;6.40;;;2.90;;
8881;SDS011;4477;48.736;9.176;2022-10-18T11:09:08;6.47;;;2.75;;
8881;SDS011;4477;48.736;9.176;2022-10-18T11:11:53;7.30;;;3.35;;
8881;SDS011;4477;48.736;9.176;2022-10-18T11:14:28;7.60;;;3.65;;
8881;SDS011;4477;48.736;9.176;2022-10-18T11:17:01;6.60;;;3.30;;
8881;SDS011;4477;48.736;9.176;2022-10-18T11:19:37;3.72;;;3.13;;
8881;SDS011;4477;48.736;9.176;2022-10-18T11:22:11;5.63;;;2.95;;
8881;SDS011;4477;48.736;9.176;2022-10-18T11:24:42;8.32;;;3.40;;
8881;SDS011;4477;48.736;9.176;2022-10-18T11:27:09;6.07;;;3.72;;
8881;SDS011;4477;48.736;9.176;2022-10-18T11:29:47;8.55;;;3.50;;
8881;SDS011;4477;48.736;9.176;2022-10-18T11:32:29;5.60;;;3.08;;
8881;SDS011;4477;48.736;9.176;2022-10-18T11:35:06;7.55;;;3.08;;
8881;SDS011;4477;48.736;9.176;2022-10-18T11:37:52;4.07;;;2.70;;
8881;SDS011;4477;48.736;9.176;2022-10-18T11:40:34;5.28;;;3.00;;
8881;SDS011;4477;48.736;9.176;2022-10-18T11:43:14;5.97;;;3.03;;
8881;SDS011;4477;48.736;9.176;2022-10-18T11:45:48;6.38;;;2.97;;
8881;SDS011;4477;48.736;9.176;2022-10-18T11:48:31;4.90;;;2.80;;
8881;SDS011;4477;48.736;9.176;2022-10-18T11:51:12;5.05;;;2.80;;
8881;SDS011;4477;48.736;9.176;2022-10-18T11:53:45;10.27;;;4.10;;
8881;SDS011;4477;48.736;9.176;2022-10-18T11:56:26;8.52;;;3.60;;
8881;SDS011;4477;48.736;9.176;2022-10-18T11:59:05;10.50;;;4.00;;
8881;SDS011;4477;48.736;9.176;2022-10-18T12:01:38;8.45;;;3.92;;
8881;SDS011;4477;48.736;9.176;2022-10-18T12:04:09;9.68;;;3.90;;
8881;SDS011;4477;48.736;9.176;2022-10-18T12:06:40;5.88;;;4.10;;
8881;SDS011;4477;48.736;9.176;2022-10-18T12:09:09;8.45;;;3.88;;
8881;SDS011;4477;48.736;9.176;2022-10-18T12:11:46;6.45;;;3.50;;
8881;SDS011;4477;48.736;9.176;2022-10-18T12:14:20;8.48;;;3.15;;
8881;SDS011;4477;48.736;9.176;2022-10-18T12:16:50;4.63;;;2.95;;
8881;SDS011;4477;48.736;9.176;2022-10-18T12:19:19;4.28;;;2.25;;
8881;SDS011;4477;48.736;9.176;2022-10-18T12:21:50;5.55;;;2.30;;
8881;SDS011;4477;48.736;9.176;2022-10-18T12:24:19;3.78;;;2.05;;
8881;SDS011;4477;48.736;9.176;2022-10-18T12:26:52;5.57;;;2.47;;
8881;SDS011;4477;48.736;9.176;2022-10-18T12:29:26;6.80;;;2.45;;
8881;SDS011;4477;48.736;9.176;2022-10-18T12:31:58;6.95;;;2.30;;
8881;SDS011;4477;48.736;9.176;2022-10-18T12:34:32;3.80;;;2.45;;
8881;SDS011;4477;48.736;9.176;2022-10-18T12:37:07;4.55;;;1.95;;
8881;SDS011;4477;48.736;9.176;2022-10-18T12:39:52;6.68;;;2.45;;
8881;SDS011;4477;48.736;9.176;2022-10-18T12:42:25;6.50;;;2.10;;
8881;SDS011;4477;48.736;9.176;2022-10-18T12:45:00;5.32;;;2.10;;
8881;SDS011;4477;48.736;9.176;2022-10-18T12:47:29;6.88;;;1.90;;
8881;SDS011;4477;48.736;9.176;2022-10-18T12:49:57;5.18;;;1.85;;
8881;SDS011;4477;48.736;9.176;2022-10-18T12:52:27;3.00;;;1.70;;
8881;SDS011;4477;48.736;9.176;2022-10-18T12:55:06;4.68;;;1.60;;
8881;SDS011;4477;48.736;9.176;2022-10-18T13:00:53;3.85;;;1.80;;
8881;SDS011;4477;48.736;9.176;2022-10-18T13:03:39;5.82;;;2.08;;
8881;SDS011;4477;48.736;9.176;2022-10-18T13:06:17;4.55;;;1.80;;
8881;SDS011;4477;48.736;9.176;2022-10-18T13:08:44;4.78;;;2.08;;
8881;SDS011;4477;48.736;9.176;2022-10-18T13:11:31;3.60;;;1.85;;
8881;SDS011;4477;48.736;9.176;2022-10-18T13:16:49;5.28;;;2.30;;
8881;SDS011;4477;48.736;9.176;2022-10-18T13:19:23;4.40;;;2.20;;
8881;SDS011;4477;48.736;9.176;2022-10-18T13:21:54;3.65;;;2.60;;
8881;SDS011;4477;48.736;9.176;2022-10-18T13:24:25;5.50;;;2.50;;
8881;SDS011;4477;48.736;9.176;2022-10-18T13:27:06;5.55;;;2.65;;
8881;SDS011;4477;48.736;9.176;2022-10-18T13:29:52;10.48;;;2.40;;
8881;SDS011;4477;48.736;9.176;2022-10-18T13:32:46;5.60;;;2.60;;
8881;SDS011;4477;48.736;9.176;2022-10-18T13:38:29;6.18;;;2.65;;
8881;SDS011;4477;48.736;9.176;2022-10-18T13:41:16;5.88;;;2.10;;
8881;SDS011;4477;48.736;9.176;2022-10-18T13:50:04;3.53;;;1.95;;
8881;SDS011;4477;48.736;9.176;2022-10-18T13:52:46;4.78;;;2.03;;
8881;SDS011;4477;48.736;9.176;2022-10-18T13:55:41;6.35;;;2.20;;
8881;SDS011;4477;48.736;9.176;2022-10-18T13:58:17;3.20;;;1.70;;
8881;SDS011;4477;48.736;9.176;2022-10-18T14:00:55;2.67;;;1.88;;
8881;SDS011;4477;48.736;9.176;2022-10-18T14:03:42;5.40;;;1.80;;
8881;SDS011;4477;48.736;9.176;2022-10-18T14:06:26;6.50;;;1.83;;
8881;SDS011;4477;48.736;9.176;2022-10-18T14:08:58;3.13;;;1.60;;
8881;SDS011;4477;48.736;9.176;2022-10-18T14:11:29;2.20;;;1.40;;
8881;SDS011;4477;48.736;9.176;2022-10-18T14:14:01;2.92;;;1.55;;
8881;SDS011;4477;48.736;9.176;2022-10-18T14:16:33;3.60;;;1.30;;
8881;SDS011;4477;48.736;9.176;2022-10-18T14:19:07;2.03;;;1.40;;
8881;SDS011;4477;48.736;9.176;2022-10-18T14:21:46;1.85;;;1.50;;
8881;SDS011;4477;48.736;9.176;2022-10-18T14:24:19;4.60;;;1.60;;
8881;SDS011;4477;48.736;9.176;2022-10-18T14:29:38;3.73;;;1.90;;
8881;SDS011;4477;48.736;9.176;2022-10-18T14:32:07;3.93;;;1.90;;
8881;SDS011;4477;48.736;9.176;2022-10-18T14:34:36;5.97;;;2.10;;
8881;SDS011;4477;48.736;9.176;2022-10-18T14:37:07;5.50;;;2.37;;
8881;SDS011;4477;48.736;9.176;2022-10-18T14:39:42;4.40;;;2.30;;
8881;SDS011;4477;48.736;9.176;2022-10-18T14:42:16;4.40;;;2.40;;
8881;SDS011;4477;48.736;9.176;2022-10-18T14:44:46;6.77;;;2.67;;
8881;SDS011;4477;48.736;9.176;2022-10-18T14:47:15;5.00;;;2.60;;
8881;SDS011;4477;48.736;9.176;2022-10-18T14:49:45;6.60;;;2.87;;
8881;SDS011;4477;48.736;9.176;2022-10-18T14:52:14;5.73;;;3.13;;
8881;SDS011;4477;48.736;9.176;2022-10-18T14:54:42;3.40;;;3.10;;
8881;SDS011;4477;48.736;9.176;2022-10-18T14:57:14;5.73;;;2.60;;
8881;SDS011;4477;48.736;9.176;2022-10-18T14:59:43;5.13;;;2.73;;
8881;SDS011;4477;48.736;9.176;2022-10-18T15:02:16;4.53;;;2.63;;
8881;SDS011;4477;48.736;9.176;2022-10-18T15:04:52;4.77;;;2.93;;
8881;SDS011;4477;48.736;9.176;2022-10-18T15:07:22;6.23;;;2.80;;
8881;SDS011;4477;48.736;9.176;2022-10-18T15:09:52;6.27;;;2.57;;
8881;SDS011;4477;48.736;9.176;2022-10-18T15:12:21;3.07;;;2.77;;
8881;SDS011;4477;48.736;9.176;2022-10-18T15:14:48;6.13;;;2.70;;
8881;SDS011;4477;48.736;9.176;2022-10-18T15:17:18;4.90;;;2.67;;
8881;SDS011;4477;48.736;9.176;2022-10-18T15:19:57;5.90;;;2.30;;
8881;SDS011;4477;48.736;9.176;2022-10-18T15:22:27;5.10;;;2.63;;
8881;SDS011;4477;48.736;9.176;2022-10-18T15:25:03;3.90;;;2.60;;
8881;SDS011;4477;48.736;9.176;2022-10-18T15:27:36;2.67;;;2.27;;
8881;SDS011;4477;48.736;9.176;2022-10-18T15:30:05;5.33;;;2.70;;
8881;SDS011;4477;48.736;9.176;2022-10-18T15:32:34;3.60;;;2.50;;
8881;SDS011;4477;48.736;9.176;2022-10-18T15:35:05;4.10;;;3.07;;
8881;SDS011;4477;48.736;9.176;2022-10-18T15:37:36;2.90;;;2.50;;
8881;SDS011;4477;48.736;9.176;2022-10-18T15:40:16;4.57;;;3.00;;
8881;SDS011;4477;48.736;9.176;2022-10-18T15:42:59;7.00;;;2.70;;
8881;SDS011;4477;48.736;9.176;2022-10-18T15:45:31;4.23;;;2.67;;
8881;SDS011;4477;48.736;9.176;2022-10-18T15:48:02;4.03;;;2.87;;
8881;SDS011;4477;48.736;9.176;2022-10-18T15:50:47;5.57;;;2.93;;
8881;SDS011;4477;48.736;9.176;2022-10-18T15:53:23;7.30;;;3.10;;
8881;SDS011;4477;48.736;9.176;2022-10-18T15:55:58;7.73;;;3.20;;
8881;SDS011;4477;48.736;9.176;2022-10-18T15:58:28;7.20;;;3.30;;
8881;SDS011;4477;48.736;9.176;2022-10-18T16:01:03;7.33;;;3.33;;
8881;SDS011;4477;48.736;9.176;2022-10-18T16:03:31;6.00;;;3.40;;
8881;SDS011;4477;48.736;9.176;2022-10-18T16:06:02;4.97;;;3.50;;
8881;SDS011;4477;48.736;9.176;2022-10-18T16:08:35;5.63;;;3.60;;
8881;SDS011;4477;48.736;9.176;2022-10-18T16:11:05;6.70;;;3.73;;
8881;SDS011;4477;48.736;9.176;2022-10-18T16:13:31;9.43;;;3.80;;
8881;SDS011;4477;48.736;9.176;2022-10-18T16:15:59;11.17;;;3.60;;
8881;SDS011;4477;48.736;9.176;2022-10-18T16:18:25;6.23;;;3.93;;
8881;SDS011;4477;48.736;9.176;2022-10-18T16:20:53;6.40;;;4.10;;
8881;SDS011;4477;48.736;9.176;2022-10-18T16:23:21;10.13;;;3.83;;
8881;SDS011;4477;48.736;9.176;2022-10-18T16:25:51;9.70;;;4.23;;
8881;SDS011;4477;48.736;9.176;2022-10-18T16:28:18;8.00;;;4.00;;
8881;SDS011;4477;48.736;9.176;2022-10-18T16:30:50;4.43;;;3.50;;
8881;SDS011;4477;48.736;9.176;2022-10-18T16:33:20;4.67;;;4.20;;
8881;SDS011;4477;48.736;9.176;2022-10-18T16:35:47;6.53;;;4.17;;
8881;SDS011;4477;48.736;9.176;2022-10-18T16:38:24;7.57;;;4.03;;
8881;SDS011;4477;48.736;9.176;2022-10-18T16:40:55;6.30;;;4.43;;
8881;SDS011;4477;48.736;9.176;2022-10-18T16:43:22;6.73;;;4.33;;
8881;SDS011;4477;48.736;9.176;2022-10-18T16:45:50;7.40;;;5.07;;
8881;SDS011;4477;48.736;9.176;2022-10-18T16:48:19;6.90;;;5.27;;
8881;SDS011;4477;48.736;9.176;2022-10-18T16:50:48;6.10;;;5.10;;
8881;SDS011;4477;48.736;9.176;2022-10-18T16:53:15;8.17;;;5.40;;
8881;SDS011;4477;48.736;9.176;2022-10-18T16:55:43;11.20;;;5.53;;
8881;SDS011;4477;48.736;9.176;2022-10-18T16:58:14;10.07;;;5.90;;
8881;SDS011;4477;48.736;9.176;2022-10-18T17:00:43;8.47;;;6.13;;
8881;SDS011;4477;48.736;9.176;2022-10-18T17:03:10;9.27;;;5.67;;
8881;SDS011;4477;48.736;9.176;2022-10-18T17:05:37;5.83;;;5.33;;
8881;SDS011;4477;48.736;9.176;2022-10-18T17:08:04;7.73;;;6.07;;
8881;SDS011;4477;48.736;9.176;2022-10-18T17:10:31;8.63;;;5.60;;
8881;SDS011;4477;48.736;9.176;2022-10-18T17:12:59;7.03;;;5.57;;
8881;SDS011;4477;48.736;9.176;2022-10-18T17:15:27;6.10;;;5.57;;
8881;SDS011;4477;48.736;9.176;2022-10-18T17:17:54;6.17;;;5.57;;
8881;SDS011;4477;48.736;9.176;2022-10-18T17:20:21;7.37;;;5.80;;
8881;SDS011;4477;48.736;9.176;2022-10-18T17:22:50;6.40;;;5.80;;
8881;SDS011;4477;48.736;9.176;2022-10-18T17:25:17;7.80;;;5.73;;
8881;SDS011;4477;48.736;9.176;2022-10-18T17:27:44;8.27;;;5.90;;
8881;SDS011;4477;48.736;9.176;2022-10-18T17:37:53;6.77;;;6.17;;
8881;SDS011;4477;48.736;9.176;2022-10-18T17:40:20;7.13;;;6.53;;
8881;SDS011;4477;48.736;9.176;2022-10-18T17:42:48;7.90;;;7.20;;
8881;SDS011;4477;48.736;9.176;2022-10-18T17:45:16;7.90;;;7.20;;
8881;SDS011;4477;48.736;9.176;2022-10-18T17:47:43;8.00;;;7.30;;
8881;SDS011;4477;48.736;9.176;2022-10-18T17:50:10;8.20;;;7.40;;
8881;SDS011;4477;48.736;9.176;2022-10-18T17:52:39;8.47;;;7.67;;
8881;SDS011;4477;48.736;9.176;2022-10-18T17:55:08;8.87;;;7.37;;
8881;SDS011;4477;48.736;9.176;2022-10-18T17:57:34;8.23;;;7.20;;
8881;SDS011;4477;48.736;9.176;2022-10-18T18:00:02;9.93;;;7.13;;
8881;SDS011;4477;48.736;9.176;2022-10-18T18:02:31;9.10;;;8.20;;
8881;SDS011;4477;48.736;9.176;2022-10-18T18:04:58;8.17;;;7.40;;
8881;SDS011;4477;48.736;9.176;2022-10-18T18:07:25;10.27;;;7.40;;
8881;SDS011;4477;48.736;9.176;2022-10-18T18:09:53;8.40;;;7.70;;
8881;SDS011;4477;48.736;9.176;2022-10-18T18:12:21;10.37;;;7.83;;
8881;SDS011;4477;48.736;9.176;2022-10-18T18:14:48;8.87;;;7.97;;
8881;SDS011;4477;48.736;9.176;2022-10-18T18:17:15;8.50;;;7.43;;
8881;SDS011;4477;48.736;9.176;2022-10-18T18:19:42;8.17;;;7.37;;
8881;SDS011;4477;48.736;9.176;2022-10-18T18:22:08;8.53;;;7.83;;
8881;SDS011;4477;48.736;9.176;2022-10-18T18:24:35;13.10;;;7.93;;
8881;SDS011;4477;48.736;9.176;2022-10-18T18:27:02;8.63;;;7.73;;
8881;SDS011;4477;48.736;9.176;2022-10-18T18:29:30;8.70;;;7.90;;
8881;SDS011;4477;48.736;9.176;2022-10-18T18:31:57;9.33;;;8.40;;
8881;SDS011;4477;48.736;9.176;2022-10-18T18:34:24;9.10;;;8.30;;
8881;SDS011;4477;48.736;9.176;2022-10-18T18:36:51;9.90;;;8.90;;
8881;SDS011;4477;48.736;9.176;2022-10-18T18:39:19;10.33;;;9.20;;
8881;SDS011;4477;48.736;9.176;2022-10-18T18:41:48;11.13;;;9.50;;
8881;SDS011;4477;48.736;9.176;2022-10-18T18:44:16;11.73;;;10.53;;
8881;SDS011;4477;48.736;9.176;2022-10-18T18:46:45;11.93;;;9.77;;
8881;SDS011;4477;48.736;9.176;2022-10-18T18:49:12;11.30;;;10.17;;
8881;SDS011;4477;48.736;9.176;2022-10-18T18:51:40;12.53;;;9.57;;
8881;SDS011;4477;48.736;9.176;2022-10-18T18:56:42;12.43;;;11.23;;
8881;SDS011;4477;48.736;9.176;2022-10-18T18:59:09;13.77;;;11.27;;
8881;SDS011;4477;48.736;9.176;2022-10-18T19:01:38;15.07;;;12.53;;